KOKC

Will Rogers World Airport

Oklahoma City, Oklahoma, USA
KOKC 181120Z 1812/1912 35015KT 6SM BR OVC003 TEMPO 1812/1814 4SM -FZDZ OVC003 FM181500 35012KT P6SM OVC007 FM181900 35011KT P6SM OVC015 FM190000 35004KT P6SM SCT030
Issued Valid From Valid To
Nov-18 @ 11:20 UTC
(5 hours ago)
Nov-18 @ 12:00 UTC
(5 hours ago)
Nov-19 @ 12:00 UTC
(in 19 hours)
Expired Click to View Nov-18 @ 12:00 to Nov-18 @ 15:00
KOKC 181120Z 1812/1912 35015KT 6SM BR OVC003
Wind Visibility Clouds Conditions
350° at 15 knots 6 miles
  • Overcast at 300' AGL
  • Mist
Expired Click to View Nov-18 @ 12:00 to Nov-18 @ 14:00
TEMPO 1812/1814 4SM -FZDZ OVC003
Visibility Clouds Conditions
4 miles
  • Overcast at 300' AGL
  • Light Freezing
  • Light Drizzle
From Nov-18 @ 15:00 to Nov-18 @ 19:00
FM181500 35012KT P6SM OVC007
Wind Visibility Clouds
350° at 12 knots Greater than 6 miles
  • Overcast at 700' AGL
From Nov-18 @ 19:00 to Nov-19 @ 00:00
FM181900 35011KT P6SM OVC015
Wind Visibility Clouds
350° at 11 knots Greater than 6 miles
  • Overcast at 1,500' AGL
From Nov-19 @ 00:00 to Nov-19 @ 12:00
FM190000 35004KT P6SM SCT030
Wind Visibility Clouds
350° at 4 knots Greater than 6 miles
  • Scattered at 3,000' AGL
KOKC 181120Z 1812/1912 35015KT 6SM BR OVC003 TEMPO 1812/1814 4SM -FZDZ OVC003 FM181500 35012KT P6SM OVC007 FM181900 35011KT P6SM OVC015 FM190000 35004KT P6SM SCT030
Issued Nov-18 @ 11:20 UTC
(5 hours ago)
Valid From Nov-18 @ 12:00 UTC
(5 hours ago)
Valid To Nov-19 @ 12:00 UTC
(in 19 hours)
Nov-18 @ 12:00 - Nov-18 @ 15:00
Wind Visibility
350° at 15 knots 6 miles
Clouds
  • Overcast at 300' AGL
Conditions
  • Mist
Nov-18 @ 12:00 - Nov-18 @ 14:00
Clouds
  • Overcast at 300' AGL
Conditions
  • Light Freezing
  • Light Drizzle
From Nov-18 @ 15:00 - Nov-18 @ 19:00
Wind Visibility
350° at 12 knots Greater than 6 miles
Clouds
  • Overcast at 700' AGL
From Nov-18 @ 19:00 - Nov-19 @ 00:00
Wind Visibility
350° at 11 knots Greater than 6 miles
Clouds
  • Overcast at 1,500' AGL
From Nov-19 @ 00:00 - Nov-19 @ 12:00
Wind Visibility
350° at 4 knots Greater than 6 miles
Clouds
  • Scattered at 3,000' AGL